createdAt,value
2019-06-20T00:02:21.995Z,10.48
2019-06-20T00:04:55.132Z,10.98
2019-06-20T00:07:28.275Z,11.70
2019-06-20T00:10:01.194Z,12.73
2019-06-20T00:12:34.244Z,12.25
2019-06-20T00:15:07.574Z,14.38
2019-06-20T00:17:40.627Z,13.58
2019-06-20T00:20:14.229Z,14.58
2019-06-20T00:22:47.395Z,15.05
2019-06-20T00:25:20.518Z,15.15
2019-06-20T00:27:53.489Z,14.20
2019-06-20T00:30:26.489Z,15.30
2019-06-20T00:32:59.483Z,15.30
2019-06-20T00:35:32.405Z,14.43
2019-06-20T00:38:05.441Z,14.05
2019-06-20T00:40:38.412Z,13.40
2019-06-20T00:43:17.587Z,15.08
2019-06-20T00:45:46.327Z,15.65
2019-06-20T00:48:19.455Z,14.03
2019-06-20T00:50:52.370Z,13.58
2019-06-20T00:53:26.399Z,14.38
2019-06-20T00:55:59.391Z,15.40
2019-06-20T00:58:32.503Z,14.95
2019-06-20T01:01:05.515Z,15.18
2019-06-20T01:03:38.759Z,15.60
2019-06-20T01:06:11.590Z,13.90
2019-06-20T01:08:44.635Z,14.03
2019-06-20T01:11:17.490Z,15.40
2019-06-20T01:13:52.785Z,14.38
2019-06-20T01:16:25.139Z,14.83
2019-06-20T01:18:58.179Z,15.83
2019-06-20T01:21:31.234Z,15.15
2019-06-20T01:24:04.300Z,14.13
2019-06-20T01:26:37.325Z,16.37
2019-06-20T01:29:10.319Z,16.07
2019-06-20T01:31:43.326Z,15.38
2019-06-20T01:34:16.304Z,15.53
2019-06-20T01:36:49.352Z,15.28
2019-06-20T01:39:22.441Z,15.80
2019-06-20T01:41:55.491Z,14.35
2019-06-20T01:44:29.477Z,13.95
2019-06-20T01:47:03.533Z,13.80
2019-06-20T01:49:36.451Z,13.35
2019-06-20T01:52:09.429Z,14.33
2019-06-20T01:54:42.466Z,13.88
2019-06-20T01:57:15.435Z,14.80
2019-06-20T01:59:48.522Z,13.83
2019-06-20T02:02:21.578Z,14.18
2019-06-20T02:04:54.595Z,14.13
2019-06-20T02:07:28.880Z,14.07
2019-06-20T02:10:01.786Z,14.07
2019-06-20T02:12:34.973Z,14.07
2019-06-20T02:15:08.017Z,13.25
2019-06-20T02:17:41.059Z,13.25
2019-06-20T02:20:30.488Z,14.43
2019-06-20T02:23:04.051Z,14.45
2019-06-20T02:25:37.200Z,14.50
2019-06-20T02:28:10.162Z,13.20
2019-06-20T02:30:43.098Z,12.90
2019-06-20T02:33:16.179Z,12.88
2019-06-20T02:35:49.299Z,12.85
2019-06-20T02:38:22.216Z,12.05
2019-06-20T02:40:55.139Z,13.70
2019-06-20T02:43:28.310Z,13.22
2019-06-20T02:46:01.389Z,16.07
2019-06-20T02:48:34.385Z,15.63
2019-06-20T02:51:07.345Z,14.83
2019-06-20T02:53:40.667Z,14.65
2019-06-20T02:56:14.635Z,15.35
2019-06-20T02:58:47.553Z,14.18
2019-06-20T03:01:20.523Z,14.45
2019-06-20T03:03:53.737Z,14.78
2019-06-20T03:06:26.688Z,14.83
2019-06-20T03:08:59.640Z,15.60
2019-06-20T03:11:32.657Z,14.95
2019-06-20T03:14:06.094Z,16.25
2019-06-20T03:16:39.166Z,17.77
2019-06-20T03:19:12.078Z,15.23
2019-06-20T03:21:45.171Z,17.75
2019-06-20T03:24:18.602Z,16.90
2019-06-20T03:26:51.683Z,17.00
2019-06-20T03:29:24.658Z,16.93
2019-06-20T03:31:57.601Z,14.85
2019-06-20T03:34:30.585Z,17.00
2019-06-20T03:37:04.364Z,18.27
2019-06-20T03:39:37.387Z,17.02
2019-06-20T03:42:10.318Z,17.30
2019-06-20T03:44:58.433Z,15.45
2019-06-20T03:47:19.323Z,16.85
2019-06-20T03:49:52.282Z,16.15
2019-06-20T03:52:25.285Z,13.78
2019-06-20T03:54:58.106Z,15.40
2019-06-20T03:57:30.955Z,16.82
2019-06-20T04:00:05.354Z,14.95
2019-06-20T04:02:38.874Z,14.30
2019-06-20T04:05:12.063Z,17.87
2019-06-20T04:07:44.935Z,18.75
2019-06-20T04:10:18.023Z,16.25
2019-06-20T04:12:52.062Z,15.28
2019-06-20T04:15:24.868Z,15.40
2019-06-20T04:17:57.812Z,11.97
2019-06-20T04:20:30.706Z,11.65
2019-06-20T04:23:03.850Z,13.20
2019-06-20T04:25:36.855Z,12.20
2019-06-20T04:28:09.973Z,11.43
2019-06-20T04:30:43.044Z,10.53
2019-06-20T04:33:16.349Z,10.68
2019-06-20T04:35:49.439Z,10.00
2019-06-20T04:38:22.462Z,12.00
2019-06-20T04:40:55.392Z,10.70
2019-06-20T04:43:28.503Z,11.08
2019-06-20T04:46:07.357Z,11.03
2019-06-20T04:48:41.440Z,9.68
2019-06-20T04:51:14.420Z,9.58
2019-06-20T04:53:47.678Z,9.15
2019-06-20T04:56:20.813Z,8.63
2019-06-20T04:58:53.828Z,8.00
2019-06-20T05:01:26.844Z,8.03
2019-06-20T05:03:59.768Z,7.80
2019-06-20T05:06:32.798Z,7.67
2019-06-20T05:09:07.521Z,7.45
2019-06-20T05:11:40.373Z,6.83
2019-06-20T05:14:13.382Z,6.87
2019-06-20T05:16:46.597Z,6.20
2019-06-20T05:19:19.518Z,5.75
2019-06-20T05:21:53.605Z,6.00
2019-06-20T05:24:26.813Z,4.85
2019-06-20T05:26:59.880Z,5.62
2019-06-20T05:29:33.299Z,5.80
2019-06-20T05:32:06.295Z,5.70
2019-06-20T05:34:39.201Z,5.80
2019-06-20T05:37:12.367Z,5.95
2019-06-20T05:39:45.378Z,5.05
2019-06-20T05:42:19.768Z,6.58
2019-06-20T05:44:53.110Z,6.05
2019-06-20T05:47:26.295Z,6.15
2019-06-20T05:49:59.306Z,5.55
2019-06-20T05:52:32.285Z,6.10
2019-06-20T05:55:05.568Z,5.17
2019-06-20T05:57:38.673Z,5.80
2019-06-20T06:00:13.861Z,5.12
2019-06-20T06:02:46.768Z,5.28
2019-06-20T06:05:19.813Z,5.58
2019-06-20T06:07:52.813Z,5.97
2019-06-20T06:10:25.903Z,5.45
2019-06-20T06:12:58.845Z,6.67
2019-06-20T06:15:31.847Z,5.58
2019-06-20T06:18:05.062Z,5.25
2019-06-20T06:20:38.158Z,5.10
2019-06-20T06:23:11.163Z,5.00
2019-06-20T06:25:44.776Z,5.05
2019-06-20T06:28:18.958Z,4.80
2019-06-20T06:30:51.942Z,4.50
2019-06-20T06:33:24.938Z,4.80
2019-06-20T06:35:58.089Z,5.05
2019-06-20T06:38:31.739Z,4.30
2019-06-20T06:41:04.732Z,4.40
2019-06-20T06:43:41.861Z,4.87
2019-06-20T06:46:12.507Z,4.95
2019-06-20T06:48:45.620Z,4.95
2019-06-20T06:51:18.622Z,4.97
2019-06-20T06:53:51.671Z,5.10
2019-06-20T06:56:24.778Z,4.92
2019-06-20T06:58:58.213Z,5.33
2019-06-20T07:01:31.310Z,6.12
2019-06-20T07:04:04.367Z,5.05
2019-06-20T07:06:37.465Z,4.90
2019-06-20T07:09:10.483Z,5.53
2019-06-20T07:11:43.609Z,4.95
2019-06-20T07:14:16.581Z,5.37
2019-06-20T07:17:00.205Z,5.47
2019-06-20T07:19:36.576Z,5.50
2019-06-20T07:22:09.830Z,4.35
2019-06-20T07:24:42.877Z,5.17
2019-06-20T07:27:16.977Z,5.60
2019-06-20T07:29:50.114Z,4.70
2019-06-20T07:32:23.038Z,4.47
2019-06-20T07:34:56.086Z,4.45
2019-06-20T07:37:29.206Z,4.92
2019-06-20T07:40:02.211Z,4.17
2019-06-20T07:42:35.430Z,4.97
2019-06-20T07:45:09.648Z,4.50
2019-06-20T07:47:42.847Z,3.72
2019-06-20T07:50:16.325Z,4.47
2019-06-20T07:53:01.560Z,4.28
2019-06-20T07:55:24.213Z,4.50
2019-06-20T07:57:57.251Z,3.83
2019-06-20T08:00:30.911Z,4.20
2019-06-20T08:03:05.231Z,4.22
2019-06-20T08:05:38.311Z,4.55
2019-06-20T08:08:11.311Z,4.10
2019-06-20T08:10:44.398Z,4.08
2019-06-20T08:13:17.306Z,4.15
2019-06-20T08:15:51.367Z,4.00
2019-06-20T08:18:25.449Z,3.65
2019-06-20T08:20:58.552Z,3.77
2019-06-20T08:23:31.632Z,3.65
2019-06-20T08:26:04.630Z,3.33
2019-06-20T08:28:37.710Z,3.47
2019-06-20T08:31:10.672Z,3.58
2019-06-20T08:33:43.641Z,3.58
2019-06-20T08:36:16.658Z,3.70
2019-06-20T08:38:49.531Z,3.80
2019-06-20T08:41:22.440Z,3.37
2019-06-20T08:43:56.753Z,4.03
2019-06-20T08:46:30.108Z,3.50
2019-06-20T08:49:03.600Z,3.35
2019-06-20T08:51:36.789Z,3.80
2019-06-20T08:54:10.097Z,3.17
2019-06-20T08:56:43.376Z,3.75
2019-06-20T08:59:24.515Z,3.20
2019-06-20T09:01:51.042Z,3.10
2019-06-20T09:04:24.124Z,3.52
2019-06-20T09:06:58.600Z,3.62
2019-06-20T09:09:32.166Z,3.40
2019-06-20T09:12:05.328Z,2.85
2019-06-20T09:14:38.383Z,3.50
2019-06-20T09:17:12.481Z,3.85
2019-06-20T09:19:45.746Z,3.30
2019-06-20T09:22:18.725Z,3.12
2019-06-20T09:24:53.667Z,3.12
2019-06-20T09:27:27.755Z,3.02
2019-06-20T09:30:00.858Z,3.15
2019-06-20T09:32:34.974Z,3.00
2019-06-20T09:35:08.696Z,3.00
2019-06-20T09:37:41.780Z,3.50
2019-06-20T09:40:15.691Z,3.70
2019-06-20T09:42:48.592Z,3.02
2019-06-20T09:45:22.064Z,3.52
2019-06-20T09:47:56.032Z,3.58
2019-06-20T09:50:29.819Z,3.22
2019-06-20T09:53:02.879Z,3.22
2019-06-20T09:55:36.009Z,3.87
2019-06-20T09:58:08.943Z,3.83
2019-06-20T10:00:42.172Z,4.12
2019-06-20T10:03:15.393Z,3.70
2019-06-20T10:05:49.337Z,3.80
2019-06-20T10:08:23.211Z,4.33
2019-06-20T10:10:56.382Z,4.22
2019-06-20T10:13:32.682Z,4.25
2019-06-20T10:16:04.507Z,4.15
2019-06-20T10:18:37.520Z,3.47
2019-06-20T10:21:10.645Z,4.05
2019-06-20T10:23:46.039Z,3.75
2019-06-20T10:26:18.610Z,3.70
2019-06-20T10:28:53.020Z,3.60
2019-06-20T10:31:26.315Z,4.25
2019-06-20T10:33:59.534Z,3.65
2019-06-20T10:36:32.694Z,3.80
2019-06-20T10:39:08.619Z,3.80
2019-06-20T10:41:43.564Z,3.47
2019-06-20T10:44:17.465Z,3.60
2019-06-20T10:46:51.417Z,3.70
2019-06-20T10:49:24.483Z,3.95
2019-06-20T10:51:57.484Z,4.10
2019-06-20T10:54:30.729Z,3.47
2019-06-20T10:57:03.779Z,3.70
2019-06-20T10:59:36.945Z,3.58
2019-06-20T11:02:10.155Z,4.12
2019-06-20T11:04:44.023Z,3.80
2019-06-20T11:07:17.293Z,3.40
2019-06-20T11:09:50.443Z,3.10
2019-06-20T11:12:23.771Z,3.40
2019-06-20T11:14:56.819Z,3.20
2019-06-20T11:17:29.880Z,3.40
2019-06-20T11:20:03.195Z,3.95
2019-06-20T11:22:37.876Z,3.77
2019-06-20T11:25:13.448Z,3.80
2019-06-20T11:27:47.339Z,3.62
2019-06-20T11:30:21.708Z,3.75
2019-06-20T11:32:54.725Z,4.30
2019-06-20T11:35:27.764Z,4.10
2019-06-20T11:38:00.811Z,4.20
2019-06-20T11:40:36.444Z,4.60
2019-06-20T11:43:10.011Z,3.83
2019-06-20T11:45:43.697Z,4.08
2019-06-20T11:48:16.694Z,4.12
2019-06-20T11:50:49.652Z,4.08
2019-06-20T11:53:22.608Z,4.50
2019-06-20T11:55:55.588Z,4.50
2019-06-20T11:58:28.599Z,4.75
2019-06-20T12:01:03.835Z,4.92
2019-06-20T12:03:39.052Z,4.80
2019-06-20T12:06:12.070Z,4.62
2019-06-20T12:08:45.301Z,4.30
2019-06-20T12:11:18.907Z,4.30
2019-06-20T12:13:51.891Z,4.20
2019-06-20T12:16:25.149Z,4.20
2019-06-20T12:18:58.059Z,3.80
2019-06-20T12:21:31.182Z,4.08
2019-06-20T12:24:04.275Z,4.40
2019-06-20T12:26:38.928Z,4.80
2019-06-20T12:29:12.121Z,4.78
2019-06-20T12:31:45.880Z,5.42
2019-06-20T12:34:18.905Z,5.30
2019-06-20T12:36:52.123Z,5.40
2019-06-20T12:39:25.661Z,5.92
2019-06-20T12:41:58.919Z,5.75
2019-06-20T12:44:31.977Z,5.42
2019-06-20T12:47:05.077Z,5.30
2019-06-20T12:49:39.056Z,5.60
2019-06-20T12:52:13.176Z,4.70
2019-06-20T12:54:47.043Z,4.85
2019-06-20T12:57:20.081Z,5.35
2019-06-20T12:59:53.220Z,5.10
2019-06-20T13:02:26.277Z,4.75
2019-06-20T13:04:59.378Z,4.70
2019-06-20T13:07:32.513Z,5.10
2019-06-20T13:10:06.491Z,4.97
2019-06-20T13:12:41.412Z,4.92
2019-06-20T13:15:16.300Z,4.67
2019-06-20T13:17:49.619Z,4.65
2019-06-20T13:20:24.190Z,4.03
2019-06-20T13:22:58.633Z,4.20
2019-06-20T13:25:31.792Z,4.50
2019-06-20T13:28:06.622Z,4.33
2019-06-20T13:30:41.410Z,4.17
2019-06-20T13:33:14.459Z,4.45
2019-06-20T13:35:48.751Z,4.35
2019-06-20T13:38:22.105Z,3.80
2019-06-20T13:40:55.138Z,3.75
2019-06-20T13:43:28.254Z,3.85
2019-06-20T13:46:01.431Z,4.25
2019-06-20T13:48:34.464Z,4.20
2019-06-20T13:51:07.493Z,4.10
2019-06-20T13:53:41.192Z,3.80
2019-06-20T13:56:15.322Z,4.20
2019-06-20T13:58:48.817Z,4.10
2019-06-20T14:01:22.086Z,4.30
2019-06-20T14:03:55.166Z,4.20
2019-06-20T14:06:28.121Z,3.90
2019-06-20T14:09:01.145Z,4.10
2019-06-20T14:11:35.816Z,3.87
2019-06-20T14:14:08.910Z,3.80
2019-06-20T14:16:42.987Z,3.60
2019-06-20T14:19:16.305Z,4.15
2019-06-20T14:21:50.672Z,4.22
2019-06-20T14:24:23.749Z,3.87
2019-06-20T14:26:56.832Z,4.28
2019-06-20T14:29:29.792Z,3.45
2019-06-20T14:32:02.805Z,3.90
2019-06-20T14:34:36.258Z,3.50
2019-06-20T14:37:09.357Z,4.12
2019-06-20T14:39:42.382Z,3.75
2019-06-20T14:42:15.519Z,3.52
2019-06-20T14:44:49.776Z,9.25
2019-06-20T14:47:23.043Z,5.05
2019-06-20T14:49:56.083Z,4.67
2019-06-20T14:52:29.084Z,3.50
2019-06-20T14:55:01.980Z,4.92
2019-06-20T14:57:35.055Z,4.30
2019-06-20T15:00:08.309Z,5.30
2019-06-20T15:02:41.812Z,4.97
2019-06-20T15:05:17.149Z,5.10
2019-06-20T15:07:52.119Z,4.67
2019-06-20T15:10:24.919Z,4.25
2019-06-20T15:12:57.906Z,4.78
2019-06-20T15:15:32.002Z,4.53
2019-06-20T15:18:05.027Z,4.60
2019-06-20T15:20:38.057Z,4.47
2019-06-20T15:23:11.232Z,5.10
2019-06-20T15:25:45.816Z,4.35
2019-06-20T15:28:19.043Z,3.95
2019-06-20T15:30:52.737Z,4.50
2019-06-20T15:33:26.945Z,4.22
2019-06-20T15:36:01.151Z,4.20
2019-06-20T15:38:34.258Z,3.98
2019-06-20T15:41:07.399Z,4.17
2019-06-20T15:43:40.398Z,4.90
2019-06-20T15:46:13.448Z,3.92
2019-06-20T15:48:46.646Z,4.42
2019-06-20T15:51:19.744Z,4.62
2019-06-20T15:53:52.946Z,4.75
2019-06-20T15:56:26.413Z,4.05
2019-06-20T15:58:59.453Z,4.97
2019-06-20T16:01:32.480Z,4.75
2019-06-20T16:04:06.489Z,4.62
2019-06-20T16:06:39.562Z,5.25
2019-06-20T16:09:12.646Z,4.55
2019-06-20T16:11:45.676Z,4.22
2019-06-20T16:14:18.873Z,4.05
2019-06-20T16:16:52.067Z,4.80
2019-06-20T16:19:25.141Z,4.22
2019-06-20T16:21:58.187Z,3.80
2019-06-20T16:24:31.230Z,4.30
2019-06-20T16:27:04.282Z,4.03
2019-06-20T16:29:37.414Z,3.90
2019-06-20T16:32:10.350Z,4.78
2019-06-20T16:34:43.590Z,3.80
2019-06-20T16:37:16.595Z,3.90
2019-06-20T16:39:49.920Z,3.72
2019-06-20T16:42:23.258Z,3.90
2019-06-20T16:44:56.395Z,5.20
2019-06-20T16:47:29.358Z,4.92
2019-06-20T16:50:02.587Z,6.80
2019-06-20T16:52:36.024Z,7.80
2019-06-20T16:55:10.468Z,6.28
2019-06-20T16:57:43.553Z,5.75
2019-06-20T17:00:17.186Z,6.58
2019-06-20T17:02:50.348Z,5.15
2019-06-20T17:05:23.511Z,6.00
2019-06-20T17:07:56.723Z,5.60
2019-06-20T17:10:29.906Z,5.37
2019-06-20T17:13:02.883Z,4.80
2019-06-20T17:15:35.958Z,5.17
2019-06-20T17:18:09.182Z,4.92
2019-06-20T17:20:42.463Z,3.95
2019-06-20T17:23:15.671Z,3.85
2019-06-20T17:25:49.799Z,3.40
2019-06-20T17:28:22.828Z,3.47
2019-06-20T17:30:55.832Z,3.80
2019-06-20T17:33:29.109Z,3.52
2019-06-20T17:36:17.225Z,3.40
2019-06-20T17:38:37.012Z,3.00
2019-06-20T17:41:10.542Z,3.20
2019-06-20T17:43:43.846Z,3.50
2019-06-20T17:46:17.141Z,3.37
2019-06-20T17:48:50.187Z,3.80
2019-06-20T17:51:23.402Z,4.37
2019-06-20T17:53:56.282Z,4.80
2019-06-20T17:56:29.416Z,4.22
2019-06-20T17:59:02.377Z,3.85
2019-06-20T18:01:36.177Z,3.00
2019-06-20T18:04:13.667Z,3.75
2019-06-20T18:06:44.192Z,3.92
2019-06-20T18:09:17.313Z,3.17
2019-06-20T18:11:50.402Z,2.70
2019-06-20T18:14:24.749Z,2.67
2019-06-20T18:16:58.247Z,2.90
2019-06-20T18:19:31.571Z,2.90
2019-06-20T18:22:05.278Z,3.00
2019-06-20T18:24:38.391Z,3.05
2019-06-20T18:27:11.583Z,3.62
2019-06-20T18:29:44.928Z,7.75
2019-06-20T18:32:18.128Z,5.80
2019-06-20T18:35:01.608Z,3.98
2019-06-20T18:37:31.524Z,3.35
2019-06-20T18:40:00.838Z,3.37
2019-06-20T18:42:34.005Z,2.60
2019-06-20T18:45:08.000Z,3.00
2019-06-20T18:47:41.173Z,3.58
2019-06-20T18:50:15.019Z,7.03
2019-06-20T18:52:52.600Z,5.33
2019-06-20T18:55:24.053Z,6.05
2019-06-20T18:57:57.242Z,5.50
2019-06-20T19:00:34.653Z,5.20
2019-06-20T19:03:06.788Z,5.90
2019-06-20T19:05:39.905Z,5.35
2019-06-20T19:08:13.211Z,5.00
2019-06-20T19:10:47.505Z,5.85
2019-06-20T19:13:20.760Z,5.80
2019-06-20T19:15:53.853Z,6.03
2019-06-20T19:18:27.060Z,5.22
2019-06-20T19:21:00.258Z,6.30
2019-06-20T19:23:33.488Z,6.70
2019-06-20T19:26:06.859Z,5.95
2019-06-20T19:28:40.245Z,4.80
2019-06-20T19:31:13.408Z,5.33
2019-06-20T19:33:46.537Z,5.55
2019-06-20T19:36:19.701Z,6.80
2019-06-20T19:38:53.426Z,6.53
2019-06-20T19:41:27.150Z,6.12
2019-06-20T19:44:00.385Z,8.40
2019-06-20T19:46:33.492Z,8.35
2019-06-20T19:49:07.213Z,8.05
2019-06-20T19:51:40.571Z,9.15
2019-06-20T19:54:13.827Z,11.68
2019-06-20T19:56:46.984Z,11.15
2019-06-20T19:59:20.385Z,10.90
2019-06-20T20:01:53.560Z,11.75
2019-06-20T20:04:26.969Z,9.03
2019-06-20T20:07:00.168Z,8.05
2019-06-20T20:09:33.648Z,8.53
2019-06-20T20:12:06.638Z,9.25
2019-06-20T20:14:39.726Z,8.55
2019-06-20T20:17:12.871Z,8.38
2019-06-20T20:19:46.116Z,6.00
2019-06-20T20:22:19.424Z,6.00
2019-06-20T20:24:52.754Z,6.37
2019-06-20T20:27:25.815Z,5.50
2019-06-20T20:29:58.944Z,5.75
2019-06-20T20:32:31.986Z,6.22
2019-06-20T20:35:05.125Z,6.30
2019-06-20T20:37:38.331Z,5.03
2019-06-20T20:40:12.581Z,7.10
2019-06-20T20:42:46.057Z,8.75
2019-06-20T20:45:19.490Z,7.53
2019-06-20T20:47:52.494Z,7.08
2019-06-20T20:50:25.575Z,6.22
2019-06-20T20:52:59.191Z,7.45
2019-06-20T20:55:32.382Z,6.42
2019-06-20T20:58:05.432Z,7.42
2019-06-20T21:00:50.615Z,7.25
2019-06-20T21:03:23.724Z,7.45
2019-06-20T21:05:56.797Z,9.25
2019-06-20T21:08:32.739Z,10.28
2019-06-20T21:11:04.703Z,10.75
2019-06-20T21:13:37.745Z,11.70
2019-06-20T21:16:11.976Z,11.28
2019-06-20T21:18:45.262Z,10.38
2019-06-20T21:21:18.626Z,9.45
2019-06-20T21:23:51.782Z,8.03
2019-06-20T21:26:24.823Z,8.20
2019-06-20T21:28:58.006Z,8.28
2019-06-20T21:31:30.943Z,8.43
2019-06-20T21:34:04.069Z,9.80
2019-06-20T21:36:37.288Z,9.63
2019-06-20T21:39:10.760Z,9.00
2019-06-20T21:41:43.705Z,8.30
2019-06-20T21:44:16.769Z,7.80
2019-06-20T21:46:49.896Z,8.28
2019-06-20T21:49:23.222Z,7.87
2019-06-20T21:51:56.276Z,7.55
2019-06-20T21:54:29.397Z,9.00
2019-06-20T21:57:02.397Z,9.03
2019-06-20T21:59:35.520Z,9.20
2019-06-20T22:02:09.585Z,9.95
2019-06-20T22:04:53.970Z,10.55
2019-06-20T22:07:17.632Z,10.45
2019-06-20T22:09:50.565Z,10.63
2019-06-20T22:12:23.649Z,9.95
2019-06-20T22:14:56.703Z,10.03
2019-06-20T22:17:29.725Z,10.03
2019-06-20T22:20:02.861Z,10.20
2019-06-20T22:22:36.168Z,9.20
2019-06-20T22:25:09.777Z,9.80
2019-06-20T22:27:42.722Z,9.60
2019-06-20T22:30:16.923Z,8.90
2019-06-20T22:32:49.914Z,9.45
2019-06-20T22:35:22.931Z,8.95
2019-06-20T22:37:55.957Z,9.10
2019-06-20T22:40:29.039Z,9.60
2019-06-20T22:43:02.168Z,9.50
2019-06-20T22:45:35.366Z,9.35
2019-06-20T22:48:08.759Z,9.90
2019-06-20T22:50:42.026Z,8.98
2019-06-20T22:53:16.142Z,8.80
2019-06-20T22:55:49.262Z,9.00
2019-06-20T22:58:22.253Z,10.70
2019-06-20T23:00:55.342Z,10.68
2019-06-20T23:03:28.462Z,11.20
2019-06-20T23:06:01.573Z,11.25
2019-06-20T23:08:34.881Z,10.78
2019-06-20T23:11:07.893Z,10.93
2019-06-20T23:13:40.967Z,11.90
2019-06-20T23:16:13.957Z,11.03
2019-06-20T23:18:47.013Z,10.90
2019-06-20T23:21:20.079Z,10.23
2019-06-20T23:23:53.109Z,10.58
2019-06-20T23:26:26.124Z,10.45
2019-06-20T23:29:16.902Z,11.22
2019-06-20T23:31:50.025Z,11.20
2019-06-20T23:34:23.330Z,10.98
2019-06-20T23:37:11.637Z,10.50
2019-06-20T23:39:31.097Z,11.12
2019-06-20T23:42:04.088Z,10.18
2019-06-20T23:44:37.074Z,10.55
2019-06-20T23:47:09.984Z,10.98
2019-06-20T23:49:43.086Z,10.95
2019-06-20T23:52:19.787Z,10.98
2019-06-20T23:54:52.862Z,11.28
2019-06-20T23:57:25.892Z,10.23
2019-06-20T23:59:58.859Z,11.30
